sensor_id;sensor_type;location;lat;lon;timestamp;P1;durP1;ratioP1;P2;durP2;ratioP2
36243;SDS011;22284;49.956;19.816;2022-09-27T00:02:19;29.87;;;14.45;;
36243;SDS011;22284;49.956;19.816;2022-09-27T00:05:20;38.35;;;15.32;;
36243;SDS011;22284;49.956;19.816;2022-09-27T00:08:21;34.03;;;14.73;;
36243;SDS011;22284;49.956;19.816;2022-09-27T00:11:24;32.58;;;14.00;;
36243;SDS011;22284;49.956;19.816;2022-09-27T00:14:35;31.52;;;15.00;;
36243;SDS011;22284;49.956;19.816;2022-09-27T00:17:37;30.00;;;14.78;;
36243;SDS011;22284;49.956;19.816;2022-09-27T00:20:39;29.48;;;14.65;;
36243;SDS011;22284;49.956;19.816;2022-09-27T00:23:40;30.75;;;13.98;;
36243;SDS011;22284;49.956;19.816;2022-09-27T00:26:41;27.35;;;14.25;;
36243;SDS011;22284;49.956;19.816;2022-09-27T00:29:43;29.87;;;14.00;;
36243;SDS011;22284;49.956;19.816;2022-09-27T00:32:45;29.77;;;13.62;;
36243;SDS011;22284;49.956;19.816;2022-09-27T00:35:46;24.75;;;12.98;;
36243;SDS011;22284;49.956;19.816;2022-09-27T00:38:48;34.85;;;16.45;;
36243;SDS011;22284;49.956;19.816;2022-09-27T00:41:50;39.65;;;19.02;;
36243;SDS011;22284;49.956;19.816;2022-09-27T00:44:58;48.13;;;22.10;;
36243;SDS011;22284;49.956;19.816;2022-09-27T00:48:06;47.95;;;23.80;;
36243;SDS011;22284;49.956;19.816;2022-09-27T00:51:07;60.38;;;25.43;;
36243;SDS011;22284;49.956;19.816;2022-09-27T00:54:09;57.85;;;23.60;;
36243;SDS011;22284;49.956;19.816;2022-09-27T00:57:13;57.67;;;23.05;;
36243;SDS011;22284;49.956;19.816;2022-09-27T01:00:14;57.62;;;21.75;;
36243;SDS011;22284;49.956;19.816;2022-09-27T01:03:21;61.10;;;24.77;;
36243;SDS011;22284;49.956;19.816;2022-09-27T01:06:23;55.10;;;23.18;;
36243;SDS011;22284;49.956;19.816;2022-09-27T01:09:24;50.40;;;21.23;;
36243;SDS011;22284;49.956;19.816;2022-09-27T01:12:30;44.10;;;19.00;;
36243;SDS011;22284;49.956;19.816;2022-09-27T01:33:24;23.22;;;12.33;;
36243;SDS011;22284;49.956;19.816;2022-09-27T01:36:50;25.32;;;12.73;;
36243;SDS011;22284;49.956;19.816;2022-09-27T01:40:01;25.17;;;13.33;;
36243;SDS011;22284;49.956;19.816;2022-09-27T01:43:22;21.12;;;12.58;;
36243;SDS011;22284;49.956;19.816;2022-09-27T01:46:22;26.93;;;13.18;;
36243;SDS011;22284;49.956;19.816;2022-09-27T01:49:33;26.45;;;12.63;;
36243;SDS011;22284;49.956;19.816;2022-09-27T01:52:46;20.85;;;11.53;;
36243;SDS011;22284;49.956;19.816;2022-09-27T01:55:50;22.52;;;12.03;;
36243;SDS011;22284;49.956;19.816;2022-09-27T01:58:56;24.02;;;12.55;;
36243;SDS011;22284;49.956;19.816;2022-09-27T02:02:12;39.92;;;12.03;;
36243;SDS011;22284;49.956;19.816;2022-09-27T02:05:16;43.78;;;12.45;;
36243;SDS011;22284;49.956;19.816;2022-09-27T02:08:22;38.83;;;10.88;;
36243;SDS011;22284;49.956;19.816;2022-09-27T02:11:31;32.85;;;10.98;;
36243;SDS011;22284;49.956;19.816;2022-09-27T02:14:35;25.02;;;9.88;;
36243;SDS011;22284;49.956;19.816;2022-09-27T02:17:54;19.02;;;10.18;;
36243;SDS011;22284;49.956;19.816;2022-09-27T02:21:02;20.82;;;10.55;;
36243;SDS011;22284;49.956;19.816;2022-09-27T02:24:07;26.48;;;10.23;;
36243;SDS011;22284;49.956;19.816;2022-09-27T02:27:13;22.27;;;9.58;;
36243;SDS011;22284;49.956;19.816;2022-09-27T02:30:18;23.27;;;9.48;;
36243;SDS011;22284;49.956;19.816;2022-09-27T02:33:21;16.62;;;8.70;;
36243;SDS011;22284;49.956;19.816;2022-09-27T02:36:27;23.83;;;9.10;;
36243;SDS011;22284;49.956;19.816;2022-09-27T02:42:30;13.80;;;7.97;;
36243;SDS011;22284;49.956;19.816;2022-09-27T02:56:09;16.00;;;8.50;;
36243;SDS011;22284;49.956;19.816;2022-09-27T03:06:16;23.22;;;10.95;;
36243;SDS011;22284;49.956;19.816;2022-09-27T03:09:21;27.42;;;10.93;;
36243;SDS011;22284;49.956;19.816;2022-09-27T03:12:26;21.80;;;9.90;;
36243;SDS011;22284;49.956;19.816;2022-09-27T03:15:27;23.65;;;10.32;;
36243;SDS011;22284;49.956;19.816;2022-09-27T03:18:28;26.73;;;10.98;;
36243;SDS011;22284;49.956;19.816;2022-09-27T03:21:29;24.43;;;10.55;;
36243;SDS011;22284;49.956;19.816;2022-09-27T03:24:30;29.12;;;9.30;;
36243;SDS011;22284;49.956;19.816;2022-09-27T03:27:32;18.50;;;9.58;;
36243;SDS011;22284;49.956;19.816;2022-09-27T03:30:33;22.10;;;9.35;;
36243;SDS011;22284;49.956;19.816;2022-09-27T03:33:35;17.60;;;9.30;;
36243;SDS011;22284;49.956;19.816;2022-09-27T03:36:36;18.10;;;9.53;;
36243;SDS011;22284;49.956;19.816;2022-09-27T03:39:37;15.95;;;9.20;;
36243;SDS011;22284;49.956;19.816;2022-09-27T03:42:39;16.73;;;9.17;;
36243;SDS011;22284;49.956;19.816;2022-09-27T03:45:41;17.98;;;9.83;;
36243;SDS011;22284;49.956;19.816;2022-09-27T03:48:44;19.45;;;8.85;;
36243;SDS011;22284;49.956;19.816;2022-09-27T03:51:45;16.52;;;8.83;;
36243;SDS011;22284;49.956;19.816;2022-09-27T03:54:47;15.60;;;8.73;;
36243;SDS011;22284;49.956;19.816;2022-09-27T03:57:48;17.67;;;9.58;;
36243;SDS011;22284;49.956;19.816;2022-09-27T04:00:50;20.25;;;10.15;;
36243;SDS011;22284;49.956;19.816;2022-09-27T04:03:52;36.00;;;9.85;;
36243;SDS011;22284;49.956;19.816;2022-09-27T04:06:53;24.23;;;9.45;;
36243;SDS011;22284;49.956;19.816;2022-09-27T04:09:54;35.00;;;15.18;;
36243;SDS011;22284;49.956;19.816;2022-09-27T04:12:55;55.38;;;13.00;;
36243;SDS011;22284;49.956;19.816;2022-09-27T04:15:56;40.30;;;9.88;;
36243;SDS011;22284;49.956;19.816;2022-09-27T04:18:57;36.65;;;8.93;;
36243;SDS011;22284;49.956;19.816;2022-09-27T04:21:59;23.50;;;8.43;;
36243;SDS011;22284;49.956;19.816;2022-09-27T04:25:01;18.42;;;8.78;;
36243;SDS011;22284;49.956;19.816;2022-09-27T04:28:02;18.05;;;9.55;;
36243;SDS011;22284;49.956;19.816;2022-09-27T04:31:03;19.73;;;9.68;;
36243;SDS011;22284;49.956;19.816;2022-09-27T04:34:04;26.00;;;9.63;;
36243;SDS011;22284;49.956;19.816;2022-09-27T04:37:05;30.30;;;9.40;;
36243;SDS011;22284;49.956;19.816;2022-09-27T04:40:07;22.62;;;8.83;;
36243;SDS011;22284;49.956;19.816;2022-09-27T04:43:09;20.17;;;8.55;;
36243;SDS011;22284;49.956;19.816;2022-09-27T04:46:10;13.90;;;8.05;;
36243;SDS011;22284;49.956;19.816;2022-09-27T04:49:11;13.35;;;7.65;;
36243;SDS011;22284;49.956;19.816;2022-09-27T04:52:12;14.63;;;8.50;;
36243;SDS011;22284;49.956;19.816;2022-09-27T04:55:14;14.33;;;7.87;;
36243;SDS011;22284;49.956;19.816;2022-09-27T04:58:16;14.10;;;8.58;;
36243;SDS011;22284;49.956;19.816;2022-09-27T05:01:17;16.95;;;8.88;;
36243;SDS011;22284;49.956;19.816;2022-09-27T05:04:18;16.75;;;9.03;;
36243;SDS011;22284;49.956;19.816;2022-09-27T05:07:19;18.23;;;9.93;;
36243;SDS011;22284;49.956;19.816;2022-09-27T05:10:20;22.50;;;10.50;;
36243;SDS011;22284;49.956;19.816;2022-09-27T05:13:21;16.07;;;8.90;;
36243;SDS011;22284;49.956;19.816;2022-09-27T05:16:22;19.95;;;9.40;;
36243;SDS011;22284;49.956;19.816;2022-09-27T05:19:24;14.85;;;8.78;;
36243;SDS011;22284;49.956;19.816;2022-09-27T05:22:25;15.23;;;8.40;;
36243;SDS011;22284;49.956;19.816;2022-09-27T05:25:26;41.35;;;14.00;;
36243;SDS011;22284;49.956;19.816;2022-09-27T05:28:27;68.95;;;16.20;;
36243;SDS011;22284;49.956;19.816;2022-09-27T05:31:28;43.85;;;15.18;;
36243;SDS011;22284;49.956;19.816;2022-09-27T05:34:29;46.23;;;16.05;;
36243;SDS011;22284;49.956;19.816;2022-09-27T05:37:31;69.75;;;15.55;;
36243;SDS011;22284;49.956;19.816;2022-09-27T05:40:33;70.25;;;15.23;;
36243;SDS011;22284;49.956;19.816;2022-09-27T05:43:34;76.47;;;16.17;;
36243;SDS011;22284;49.956;19.816;2022-09-27T05:46:35;40.70;;;15.00;;
36243;SDS011;22284;49.956;19.816;2022-09-27T05:49:38;57.75;;;15.75;;
36243;SDS011;22284;49.956;19.816;2022-09-27T05:52:39;59.03;;;15.60;;
36243;SDS011;22284;49.956;19.816;2022-09-27T05:55:40;83.52;;;17.05;;
36243;SDS011;22284;49.956;19.816;2022-09-27T05:58:42;67.85;;;17.87;;
36243;SDS011;22284;49.956;19.816;2022-09-27T06:01:44;47.95;;;16.73;;
36243;SDS011;22284;49.956;19.816;2022-09-27T06:04:45;46.33;;;21.42;;
36243;SDS011;22284;49.956;19.816;2022-09-27T06:07:46;32.25;;;16.85;;
36243;SDS011;22284;49.956;19.816;2022-09-27T06:10:49;35.98;;;18.65;;
36243;SDS011;22284;49.956;19.816;2022-09-27T06:13:50;38.95;;;22.13;;
36243;SDS011;22284;49.956;19.816;2022-09-27T06:16:51;30.12;;;17.10;;
36243;SDS011;22284;49.956;19.816;2022-09-27T06:19:54;25.27;;;14.33;;
36243;SDS011;22284;49.956;19.816;2022-09-27T06:23:01;24.05;;;13.50;;
36243;SDS011;22284;49.956;19.816;2022-09-27T06:26:09;31.30;;;19.30;;
36243;SDS011;22284;49.956;19.816;2022-09-27T06:29:11;26.40;;;16.95;;
36243;SDS011;22284;49.956;19.816;2022-09-27T06:32:12;21.05;;;14.00;;
36243;SDS011;22284;49.956;19.816;2022-09-27T06:35:13;27.58;;;22.00;;
36243;SDS011;22284;49.956;19.816;2022-09-27T06:38:15;28.30;;;21.37;;
36243;SDS011;22284;49.956;19.816;2022-09-27T06:41:18;31.55;;;22.17;;
36243;SDS011;22284;49.956;19.816;2022-09-27T06:44:19;22.93;;;15.30;;
36243;SDS011;22284;49.956;19.816;2022-09-27T06:47:20;20.82;;;12.47;;
36243;SDS011;22284;49.956;19.816;2022-09-27T06:50:21;21.97;;;14.83;;
36243;SDS011;22284;49.956;19.816;2022-09-27T06:53:22;18.12;;;11.43;;
36243;SDS011;22284;49.956;19.816;2022-09-27T06:56:24;14.43;;;8.90;;
36243;SDS011;22284;49.956;19.816;2022-09-27T06:59:25;16.25;;;10.60;;
36243;SDS011;22284;49.956;19.816;2022-09-27T07:02:45;16.25;;;10.32;;
36243;SDS011;22284;49.956;19.816;2022-09-27T07:06:02;16.05;;;10.43;;
36243;SDS011;22284;49.956;19.816;2022-09-27T07:09:06;21.12;;;11.05;;
36243;SDS011;22284;49.956;19.816;2022-09-27T07:12:07;19.95;;;10.80;;
36243;SDS011;22284;49.956;19.816;2022-09-27T07:15:08;17.55;;;10.43;;
36243;SDS011;22284;49.956;19.816;2022-09-27T07:18:09;26.30;;;19.12;;
36243;SDS011;22284;49.956;19.816;2022-09-27T07:21:11;28.40;;;20.75;;
36243;SDS011;22284;49.956;19.816;2022-09-27T07:24:12;23.98;;;16.82;;
36243;SDS011;22284;49.956;19.816;2022-09-27T07:27:13;26.62;;;21.40;;
36243;SDS011;22284;49.956;19.816;2022-09-27T07:30:15;21.55;;;14.63;;
36243;SDS011;22284;49.956;19.816;2022-09-27T07:33:16;22.15;;;13.30;;
36243;SDS011;22284;49.956;19.816;2022-09-27T07:36:17;25.10;;;16.05;;
36243;SDS011;22284;49.956;19.816;2022-09-27T07:39:19;27.10;;;16.00;;
36243;SDS011;22284;49.956;19.816;2022-09-27T07:42:21;23.02;;;13.83;;
36243;SDS011;22284;49.956;19.816;2022-09-27T07:45:23;21.10;;;11.38;;
36243;SDS011;22284;49.956;19.816;2022-09-27T07:48:26;19.42;;;12.18;;
36243;SDS011;22284;49.956;19.816;2022-09-27T07:51:27;18.00;;;11.83;;
36243;SDS011;22284;49.956;19.816;2022-09-27T07:54:28;18.80;;;11.97;;
36243;SDS011;22284;49.956;19.816;2022-09-27T07:57:29;19.75;;;12.23;;
36243;SDS011;22284;49.956;19.816;2022-09-27T08:00:30;19.05;;;11.30;;
36243;SDS011;22284;49.956;19.816;2022-09-27T08:03:31;17.12;;;11.33;;
36243;SDS011;22284;49.956;19.816;2022-09-27T08:06:34;22.35;;;11.75;;
36243;SDS011;22284;49.956;19.816;2022-09-27T08:09:35;19.92;;;11.83;;
36243;SDS011;22284;49.956;19.816;2022-09-27T08:12:36;23.85;;;12.47;;
36243;SDS011;22284;49.956;19.816;2022-09-27T08:15:38;21.23;;;13.20;;
36243;SDS011;22284;49.956;19.816;2022-09-27T08:18:39;18.52;;;13.00;;
36243;SDS011;22284;49.956;19.816;2022-09-27T08:21:40;16.23;;;10.48;;
36243;SDS011;22284;49.956;19.816;2022-09-27T08:24:41;16.12;;;9.83;;
36243;SDS011;22284;49.956;19.816;2022-09-27T08:27:42;17.02;;;10.63;;
36243;SDS011;22284;49.956;19.816;2022-09-27T08:30:43;18.42;;;9.23;;
36243;SDS011;22284;49.956;19.816;2022-09-27T08:33:52;15.75;;;8.98;;
36243;SDS011;22284;49.956;19.816;2022-09-27T08:36:52;15.63;;;9.13;;
36243;SDS011;22284;49.956;19.816;2022-09-27T08:39:55;15.28;;;8.95;;
36243;SDS011;22284;49.956;19.816;2022-09-27T08:43:00;15.03;;;9.13;;
36243;SDS011;22284;49.956;19.816;2022-09-27T08:53:04;15.80;;;9.88;;
36243;SDS011;22284;49.956;19.816;2022-09-27T08:56:12;19.05;;;11.25;;
36243;SDS011;22284;49.956;19.816;2022-09-27T09:02:21;22.05;;;13.55;;
36243;SDS011;22284;49.956;19.816;2022-09-27T09:05:29;20.32;;;12.37;;
36243;SDS011;22284;49.956;19.816;2022-09-27T09:12:23;13.83;;;7.75;;
36243;SDS011;22284;49.956;19.816;2022-09-27T09:15:53;16.32;;;9.38;;
36243;SDS011;22284;49.956;19.816;2022-09-27T09:22:45;14.43;;;8.98;;
36243;SDS011;22284;49.956;19.816;2022-09-27T09:26:22;20.95;;;11.83;;
36243;SDS011;22284;49.956;19.816;2022-09-27T09:36:40;14.03;;;7.70;;
36243;SDS011;22284;49.956;19.816;2022-09-27T09:39:47;16.23;;;7.40;;
36243;SDS011;22284;49.956;19.816;2022-09-27T09:43:00;12.63;;;6.00;;
36243;SDS011;22284;49.956;19.816;2022-09-27T09:46:06;7.87;;;4.83;;
36243;SDS011;22284;49.956;19.816;2022-09-27T09:49:19;11.33;;;5.80;;
36243;SDS011;22284;49.956;19.816;2022-09-27T09:52:24;12.45;;;4.75;;
36243;SDS011;22284;49.956;19.816;2022-09-27T09:55:32;5.28;;;3.98;;
36243;SDS011;22284;49.956;19.816;2022-09-27T09:58:39;19.17;;;8.65;;
36243;SDS011;22284;49.956;19.816;2022-09-27T10:01:50;13.83;;;8.10;;
36243;SDS011;22284;49.956;19.816;2022-09-27T10:04:55;14.60;;;7.72;;
36243;SDS011;22284;49.956;19.816;2022-09-27T10:07:57;16.30;;;7.70;;
36243;SDS011;22284;49.956;19.816;2022-09-27T10:11:01;14.73;;;7.65;;
36243;SDS011;22284;49.956;19.816;2022-09-27T10:14:04;6.47;;;4.40;;
36243;SDS011;22284;49.956;19.816;2022-09-27T10:17:13;9.28;;;5.12;;
36243;SDS011;22284;49.956;19.816;2022-09-27T10:23:34;3.22;;;2.62;;
36243;SDS011;22284;49.956;19.816;2022-09-27T10:26:37;3.90;;;3.02;;
36243;SDS011;22284;49.956;19.816;2022-09-27T10:29:42;3.95;;;2.60;;
36243;SDS011;22284;49.956;19.816;2022-09-27T10:32:43;3.25;;;2.77;;
36243;SDS011;22284;49.956;19.816;2022-09-27T10:38:53;4.60;;;2.80;;
36243;SDS011;22284;49.956;19.816;2022-09-27T10:41:57;3.27;;;2.98;;
36243;SDS011;22284;49.956;19.816;2022-09-27T10:45:18;5.05;;;3.40;;
36243;SDS011;22284;49.956;19.816;2022-09-27T10:48:29;4.12;;;3.15;;
36243;SDS011;22284;49.956;19.816;2022-09-27T10:51:30;8.45;;;3.30;;
36243;SDS011;22284;49.956;19.816;2022-09-27T10:54:33;4.90;;;3.17;;
36243;SDS011;22284;49.956;19.816;2022-09-27T10:57:36;7.67;;;3.95;;
36243;SDS011;22284;49.956;19.816;2022-09-27T11:00:38;6.30;;;3.58;;
36243;SDS011;22284;49.956;19.816;2022-09-27T11:03:51;4.75;;;3.15;;
36243;SDS011;22284;49.956;19.816;2022-09-27T11:07:20;3.70;;;3.10;;
36243;SDS011;22284;49.956;19.816;2022-09-27T11:10:22;5.85;;;2.90;;
36243;SDS011;22284;49.956;19.816;2022-09-27T11:13:28;3.35;;;3.05;;
36243;SDS011;22284;49.956;19.816;2022-09-27T11:30:13;3.00;;;2.70;;
36243;SDS011;22284;49.956;19.816;2022-09-27T11:37:14;3.77;;;2.50;;
36243;SDS011;22284;49.956;19.816;2022-09-27T11:51:23;4.58;;;3.00;;
36243;SDS011;22284;49.956;19.816;2022-09-27T11:54:50;4.08;;;2.67;;
36243;SDS011;22284;49.956;19.816;2022-09-27T11:58:12;5.12;;;2.77;;
36243;SDS011;22284;49.956;19.816;2022-09-27T12:04:50;2.62;;;2.42;;
36243;SDS011;22284;49.956;19.816;2022-09-27T12:08:31;2.58;;;2.22;;
36243;SDS011;22284;49.956;19.816;2022-09-27T12:11:52;2.00;;;1.90;;
36243;SDS011;22284;49.956;19.816;2022-09-27T12:15:02;5.30;;;2.12;;
36243;SDS011;22284;49.956;19.816;2022-09-27T12:18:26;2.17;;;1.98;;
36243;SDS011;22284;49.956;19.816;2022-09-27T12:21:23;2.12;;;1.95;;
36243;SDS011;22284;49.956;19.816;2022-09-27T12:24:26;3.85;;;2.30;;
36243;SDS011;22284;49.956;19.816;2022-09-27T12:27:36;2.58;;;2.37;;
36243;SDS011;22284;49.956;19.816;2022-09-27T12:30:52;3.10;;;2.20;;
36243;SDS011;22284;49.956;19.816;2022-09-27T12:41:02;3.62;;;2.83;;
36243;SDS011;22284;49.956;19.816;2022-09-27T12:44:08;3.50;;;2.75;;
36243;SDS011;22284;49.956;19.816;2022-09-27T12:50:46;3.40;;;2.85;;
36243;SDS011;22284;49.956;19.816;2022-09-27T13:11:17;4.35;;;3.10;;
36243;SDS011;22284;49.956;19.816;2022-09-27T13:14:24;3.15;;;2.67;;
36243;SDS011;22284;49.956;19.816;2022-09-27T13:20:49;3.37;;;2.90;;
36243;SDS011;22284;49.956;19.816;2022-09-27T13:23:51;3.80;;;3.20;;
36243;SDS011;22284;49.956;19.816;2022-09-27T13:26:52;6.55;;;3.65;;
36243;SDS011;22284;49.956;19.816;2022-09-27T13:36:45;4.78;;;3.08;;
36243;SDS011;22284;49.956;19.816;2022-09-27T13:39:47;3.92;;;3.27;;
36243;SDS011;22284;49.956;19.816;2022-09-27T13:42:54;18.32;;;13.72;;
36243;SDS011;22284;49.956;19.816;2022-09-27T13:46:06;18.82;;;14.03;;
36243;SDS011;22284;49.956;19.816;2022-09-27T13:49:25;6.75;;;4.85;;
36243;SDS011;22284;49.956;19.816;2022-09-27T13:52:38;5.65;;;5.00;;
36243;SDS011;22284;49.956;19.816;2022-09-27T13:55:48;8.00;;;4.92;;
36243;SDS011;22284;49.956;19.816;2022-09-27T13:58:56;17.35;;;12.82;;
36243;SDS011;22284;49.956;19.816;2022-09-27T14:05:38;7.80;;;5.40;;
36243;SDS011;22284;49.956;19.816;2022-09-27T14:08:59;5.30;;;3.45;;
36243;SDS011;22284;49.956;19.816;2022-09-27T14:12:09;4.05;;;3.05;;
36243;SDS011;22284;49.956;19.816;2022-09-27T14:15:24;4.45;;;3.92;;
36243;SDS011;22284;49.956;19.816;2022-09-27T14:18:31;5.25;;;3.72;;
36243;SDS011;22284;49.956;19.816;2022-09-27T14:21:37;3.52;;;3.22;;
36243;SDS011;22284;49.956;19.816;2022-09-27T14:27:45;5.00;;;2.90;;
36243;SDS011;22284;49.956;19.816;2022-09-27T14:30:46;4.37;;;3.25;;
36243;SDS011;22284;49.956;19.816;2022-09-27T14:33:48;4.80;;;3.40;;
36243;SDS011;22284;49.956;19.816;2022-09-27T14:36:50;3.75;;;3.17;;
36243;SDS011;22284;49.956;19.816;2022-09-27T14:40:17;6.92;;;4.33;;
36243;SDS011;22284;49.956;19.816;2022-09-27T14:43:19;7.58;;;3.92;;
36243;SDS011;22284;49.956;19.816;2022-09-27T14:46:25;6.35;;;3.70;;
36243;SDS011;22284;49.956;19.816;2022-09-27T14:49:30;5.65;;;4.70;;
36243;SDS011;22284;49.956;19.816;2022-09-27T14:55:35;10.03;;;4.40;;
36243;SDS011;22284;49.956;19.816;2022-09-27T15:01:38;11.05;;;4.62;;
36243;SDS011;22284;49.956;19.816;2022-09-27T15:04:51;7.75;;;3.80;;
36243;SDS011;22284;49.956;19.816;2022-09-27T15:07:54;6.37;;;4.40;;
36243;SDS011;22284;49.956;19.816;2022-09-27T15:11:02;6.92;;;4.40;;
36243;SDS011;22284;49.956;19.816;2022-09-27T15:14:06;8.13;;;4.40;;
36243;SDS011;22284;49.956;19.816;2022-09-27T15:17:15;9.08;;;4.70;;
36243;SDS011;22284;49.956;19.816;2022-09-27T15:20:22;7.08;;;4.60;;
36243;SDS011;22284;49.956;19.816;2022-09-27T15:23:34;6.42;;;3.60;;
36243;SDS011;22284;49.956;19.816;2022-09-27T15:26:40;4.65;;;2.85;;
36243;SDS011;22284;49.956;19.816;2022-09-27T15:29:49;4.12;;;2.75;;
36243;SDS011;22284;49.956;19.816;2022-09-27T15:32:53;4.10;;;2.50;;
36243;SDS011;22284;49.956;19.816;2022-09-27T15:35:56;4.62;;;2.47;;
36243;SDS011;22284;49.956;19.816;2022-09-27T15:39:06;5.15;;;2.85;;
36243;SDS011;22284;49.956;19.816;2022-09-27T15:42:12;7.10;;;2.87;;
36243;SDS011;22284;49.956;19.816;2022-09-27T15:45:28;4.60;;;2.45;;
36243;SDS011;22284;49.956;19.816;2022-09-27T15:48:33;4.42;;;2.40;;
36243;SDS011;22284;49.956;19.816;2022-09-27T15:51:38;4.25;;;2.70;;
36243;SDS011;22284;49.956;19.816;2022-09-27T15:54:41;4.72;;;2.70;;
36243;SDS011;22284;49.956;19.816;2022-09-27T15:57:42;5.40;;;2.70;;
36243;SDS011;22284;49.956;19.816;2022-09-27T16:00:56;4.53;;;2.60;;
36243;SDS011;22284;49.956;19.816;2022-09-27T16:04:01;6.53;;;4.67;;
36243;SDS011;22284;49.956;19.816;2022-09-27T16:07:03;7.80;;;4.85;;
36243;SDS011;22284;49.956;19.816;2022-09-27T16:10:18;6.15;;;3.67;;
36243;SDS011;22284;49.956;19.816;2022-09-27T16:13:23;4.30;;;3.12;;
36243;SDS011;22284;49.956;19.816;2022-09-27T16:16:25;7.03;;;3.33;;
36243;SDS011;22284;49.956;19.816;2022-09-27T16:19:27;12.18;;;3.33;;
36243;SDS011;22284;49.956;19.816;2022-09-27T16:22:28;7.70;;;3.85;;
36243;SDS011;22284;49.956;19.816;2022-09-27T16:25:29;7.42;;;3.50;;
36243;SDS011;22284;49.956;19.816;2022-09-27T16:28:31;6.53;;;3.47;;
36243;SDS011;22284;49.956;19.816;2022-09-27T16:31:33;6.03;;;4.00;;
36243;SDS011;22284;49.956;19.816;2022-09-27T16:34:35;7.80;;;4.10;;
36243;SDS011;22284;49.956;19.816;2022-09-27T16:37:36;8.38;;;4.53;;
36243;SDS011;22284;49.956;19.816;2022-09-27T16:40:38;7.62;;;4.58;;
36243;SDS011;22284;49.956;19.816;2022-09-27T16:43:39;8.68;;;4.20;;
36243;SDS011;22284;49.956;19.816;2022-09-27T16:46:40;7.78;;;4.33;;
36243;SDS011;22284;49.956;19.816;2022-09-27T16:49:45;5.50;;;3.37;;
36243;SDS011;22284;49.956;19.816;2022-09-27T16:53:04;6.15;;;3.55;;
36243;SDS011;22284;49.956;19.816;2022-09-27T16:56:06;6.62;;;3.52;;
36243;SDS011;22284;49.956;19.816;2022-09-27T16:59:07;6.50;;;3.40;;
36243;SDS011;22284;49.956;19.816;2022-09-27T17:02:08;5.90;;;4.00;;
36243;SDS011;22284;49.956;19.816;2022-09-27T17:05:09;6.60;;;4.45;;
36243;SDS011;22284;49.956;19.816;2022-09-27T17:08:10;8.95;;;4.40;;
36243;SDS011;22284;49.956;19.816;2022-09-27T17:11:12;7.72;;;4.30;;
36243;SDS011;22284;49.956;19.816;2022-09-27T17:17:16;10.13;;;4.90;;
36243;SDS011;22284;49.956;19.816;2022-09-27T17:20:17;8.93;;;4.55;;
36243;SDS011;22284;49.956;19.816;2022-09-27T17:23:18;8.90;;;4.92;;
36243;SDS011;22284;49.956;19.816;2022-09-27T17:26:20;13.83;;;6.33;;
36243;SDS011;22284;49.956;19.816;2022-09-27T17:29:23;9.20;;;5.17;;
36243;SDS011;22284;49.956;19.816;2022-09-27T17:32:24;5.72;;;3.80;;
36243;SDS011;22284;49.956;19.816;2022-09-27T17:35:25;5.45;;;3.58;;
36243;SDS011;22284;49.956;19.816;2022-09-27T17:38:27;4.62;;;3.40;;
36243;SDS011;22284;49.956;19.816;2022-09-27T17:41:29;10.03;;;4.80;;
36243;SDS011;22284;49.956;19.816;2022-09-27T17:44:32;11.12;;;6.00;;
36243;SDS011;22284;49.956;19.816;2022-09-27T17:47:33;10.80;;;5.42;;
36243;SDS011;22284;49.956;19.816;2022-09-27T17:50:53;12.25;;;6.20;;
36243;SDS011;22284;49.956;19.816;2022-09-27T17:53:54;7.60;;;4.28;;
36243;SDS011;22284;49.956;19.816;2022-09-27T17:56:55;11.57;;;5.55;;
36243;SDS011;22284;49.956;19.816;2022-09-27T17:59:56;11.25;;;5.90;;
36243;SDS011;22284;49.956;19.816;2022-09-27T18:02:57;11.63;;;5.58;;
36243;SDS011;22284;49.956;19.816;2022-09-27T18:06:03;12.73;;;6.65;;
36243;SDS011;22284;49.956;19.816;2022-09-27T18:09:10;10.85;;;6.17;;
36243;SDS011;22284;49.956;19.816;2022-09-27T18:12:14;15.88;;;7.40;;
36243;SDS011;22284;49.956;19.816;2022-09-27T18:15:16;19.07;;;8.53;;
36243;SDS011;22284;49.956;19.816;2022-09-27T18:21:20;15.08;;;7.15;;
36243;SDS011;22284;49.956;19.816;2022-09-27T18:24:23;11.88;;;6.30;;
36243;SDS011;22284;49.956;19.816;2022-09-27T18:27:25;15.15;;;7.42;;
36243;SDS011;22284;49.956;19.816;2022-09-27T18:30:26;24.70;;;13.50;;
36243;SDS011;22284;49.956;19.816;2022-09-27T18:33:27;19.62;;;10.10;;
36243;SDS011;22284;49.956;19.816;2022-09-27T18:36:28;18.52;;;9.80;;
36243;SDS011;22284;49.956;19.816;2022-09-27T18:39:29;18.20;;;9.10;;
36243;SDS011;22284;49.956;19.816;2022-09-27T18:42:30;18.20;;;8.50;;
36243;SDS011;22284;49.956;19.816;2022-09-27T18:45:33;15.90;;;8.40;;
36243;SDS011;22284;49.956;19.816;2022-09-27T18:48:37;16.67;;;8.23;;
36243;SDS011;22284;49.956;19.816;2022-09-27T18:51:39;17.00;;;8.58;;
36243;SDS011;22284;49.956;19.816;2022-09-27T18:54:43;17.87;;;8.00;;
36243;SDS011;22284;49.956;19.816;2022-09-27T18:57:44;14.18;;;7.87;;
36243;SDS011;22284;49.956;19.816;2022-09-27T19:00:46;16.32;;;8.38;;
36243;SDS011;22284;49.956;19.816;2022-09-27T19:03:47;16.30;;;8.60;;
36243;SDS011;22284;49.956;19.816;2022-09-27T19:06:48;17.50;;;8.55;;
36243;SDS011;22284;49.956;19.816;2022-09-27T19:09:50;16.20;;;8.97;;
36243;SDS011;22284;49.956;19.816;2022-09-27T19:12:52;17.02;;;9.40;;
36243;SDS011;22284;49.956;19.816;2022-09-27T19:15:55;20.60;;;11.15;;
36243;SDS011;22284;49.956;19.816;2022-09-27T19:18:57;19.35;;;10.60;;
36243;SDS011;22284;49.956;19.816;2022-09-27T19:21:58;15.70;;;7.55;;
36243;SDS011;22284;49.956;19.816;2022-09-27T19:25:00;12.00;;;6.72;;
36243;SDS011;22284;49.956;19.816;2022-09-27T19:28:01;10.48;;;5.90;;
36243;SDS011;22284;49.956;19.816;2022-09-27T19:31:07;10.58;;;5.90;;
36243;SDS011;22284;49.956;19.816;2022-09-27T19:34:07;11.97;;;5.90;;
36243;SDS011;22284;49.956;19.816;2022-09-27T19:37:08;10.88;;;5.70;;
36243;SDS011;22284;49.956;19.816;2022-09-27T19:40:09;12.05;;;6.20;;
36243;SDS011;22284;49.956;19.816;2022-09-27T19:43:10;12.82;;;6.37;;
36243;SDS011;22284;49.956;19.816;2022-09-27T19:46:12;14.47;;;8.28;;
36243;SDS011;22284;49.956;19.816;2022-09-27T19:49:16;16.20;;;8.33;;
36243;SDS011;22284;49.956;19.816;2022-09-27T19:52:18;19.85;;;9.45;;
36243;SDS011;22284;49.956;19.816;2022-09-27T19:55:19;17.48;;;8.48;;
36243;SDS011;22284;49.956;19.816;2022-09-27T19:58:20;13.13;;;6.80;;
36243;SDS011;22284;49.956;19.816;2022-09-27T20:01:21;14.83;;;8.15;;
36243;SDS011;22284;49.956;19.816;2022-09-27T20:04:24;16.30;;;8.25;;
36243;SDS011;22284;49.956;19.816;2022-09-27T20:07:25;14.95;;;7.28;;
36243;SDS011;22284;49.956;19.816;2022-09-27T20:10:26;15.98;;;7.25;;
36243;SDS011;22284;49.956;19.816;2022-09-27T20:13:27;17.20;;;7.70;;
36243;SDS011;22284;49.956;19.816;2022-09-27T20:16:31;16.85;;;7.17;;
36243;SDS011;22284;49.956;19.816;2022-09-27T20:19:33;15.90;;;7.22;;
36243;SDS011;22284;49.956;19.816;2022-09-27T20:22:34;16.67;;;7.62;;
36243;SDS011;22284;49.956;19.816;2022-09-27T20:25:35;18.45;;;7.60;;
36243;SDS011;22284;49.956;19.816;2022-09-27T20:28:44;16.67;;;7.20;;
36243;SDS011;22284;49.956;19.816;2022-09-27T20:31:48;15.98;;;7.12;;
36243;SDS011;22284;49.956;19.816;2022-09-27T20:34:49;14.15;;;6.90;;
36243;SDS011;22284;49.956;19.816;2022-09-27T20:37:51;17.30;;;7.55;;